Time;durP1;ratioP1;P1;durP2;ratioP2;P2;SDS_P1;SDS_P2;PMS_P1;PMS_P2;Temp;Humidity;BMP_temperature;BMP_pressure;BME280_temperature;BME280_humidity;BME280_pressure;Samples;Min_cycle;Max_cycle;Signal;HPM_P1;HPM_P2
2021/08/09 00:02:08;;;;;;;4.70;1.02;;;19.70;68.70;;;;;;2343742;54;21068;-66
2021/08/09 00:04:39;;;;;;;1.37;0.68;;;19.70;68.70;;;;;;2346885;54;21090;-67
2021/08/09 00:07:07;;;;;;;2.33;0.70;;;19.70;68.90;;;;;;2323480;54;20957;-67
2021/08/09 00:09:33;;;;;;;3.37;0.80;;;19.70;68.90;;;;;;2342674;54;21302;-68
2021/08/09 00:12:00;;;;;;;2.60;0.75;;;19.70;69.00;;;;;;2347660;54;21859;-67
2021/08/09 00:14:27;;;;;;;1.90;0.70;;;19.70;69.00;;;;;;2338049;54;21760;-69
2021/08/09 00:16:53;;;;;;;1.80;0.80;;;19.60;68.90;;;;;;2346715;54;20940;-67
2021/08/09 00:19:21;;;;;;;1.90;0.70;;;19.60;68.90;;;;;;2341399;54;20932;-69
2021/08/09 00:21:47;;;;;;;3.22;0.82;;;19.60;68.90;;;;;;2351287;54;21038;-67
2021/08/09 00:24:14;;;;;;;2.47;0.70;;;19.50;68.90;;;;;;2337590;53;21028;-67
2021/08/09 00:26:40;;;;;;;2.80;0.80;;;19.50;68.80;;;;;;2430702;52;20937;-67
2021/08/09 00:29:06;;;;;;;2.42;0.90;;;19.50;68.90;;;;;;2343712;54;20929;-67
2021/08/09 00:31:32;;;;;;;3.67;0.80;;;19.50;68.90;;;;;;2343919;54;20937;-70
2021/08/09 00:33:59;;;;;;;2.22;0.70;;;19.50;68.90;;;;;;2342676;54;20933;-68
2021/08/09 00:36:26;;;;;;;2.10;1.00;;;19.40;68.80;;;;;;2343118;53;20980;-70
2021/08/09 00:38:52;;;;;;;1.98;0.77;;;19.40;68.90;;;;;;2343640;54;20933;-67
2021/08/09 00:41:21;;;;;;;4.30;1.02;;;19.40;69.00;;;;;;2327657;55;21018;-67
2021/08/09 00:43:47;;;;;;;3.53;0.70;;;19.30;69.00;;;;;;2343148;53;20933;-67
2021/08/09 00:46:16;;;;;;;4.53;0.75;;;19.30;69.20;;;;;;2341030;54;21016;-69
2021/08/09 00:48:43;;;;;;;1.70;0.80;;;19.30;69.20;;;;;;2346873;54;21022;-65
2021/08/09 00:51:09;;;;;;;1.60;0.60;;;19.30;69.30;;;;;;2412788;52;20957;-68
2021/08/09 00:53:36;;;;;;;1.67;0.80;;;19.30;69.40;;;;;;2343613;54;20937;-67
2021/08/09 00:56:04;;;;;;;1.77;0.60;;;19.20;69.30;;;;;;2343683;54;20932;-67
2021/08/09 00:58:30;;;;;;;1.90;0.60;;;19.20;69.30;;;;;;2343499;54;20967;-67
2021/08/09 01:00:56;;;;;;;1.77;0.80;;;19.20;69.40;;;;;;2590039;52;20917;-67
2021/08/09 01:03:23;;;;;;;1.45;0.60;;;19.20;69.40;;;;;;2346777;54;20966;-67
2021/08/09 01:05:50;;;;;;;1.55;0.70;;;19.10;69.30;;;;;;2589686;52;20913;-67
2021/08/09 01:11:53;;;;;;;1.87;0.50;;;19.10;69.40;;;;;;2350353;54;20975;-67
2021/08/09 01:21:15;;;;;;;1.98;0.65;;;19.10;68.20;;;;;;2344003;54;20910;-68
2021/08/09 01:23:52;;;;;;;1.95;0.50;;;19.10;69.20;;;;;;2343779;54;20968;-70
2021/08/09 01:26:35;;;;;;;1.62;0.65;;;19.00;69.40;;;;;;2590232;52;20885;-66
2021/08/09 01:29:03;;;;;;;0.88;0.40;;;18.90;69.40;;;;;;2346418;53;20961;-66
2021/08/09 01:31:39;;;;;;;1.42;0.68;;;18.90;69.90;;;;;;2343618;53;20932;-67
2021/08/09 01:34:06;;;;;;;2.42;0.70;;;18.80;69.80;;;;;;2343767;54;20984;-68
2021/08/09 01:36:32;;;;;;;2.00;0.70;;;18.80;69.90;;;;;;2343823;54;20992;-66
2021/08/09 01:39:00;;;;;;;1.62;0.70;;;18.80;70.00;;;;;;2444649;52;20922;-67
2021/08/09 01:41:26;;;;;;;1.80;0.80;;;18.70;69.90;;;;;;2324316;55;20949;-67
2021/08/09 01:43:53;;;;;;;3.78;1.00;;;18.70;70.00;;;;;;2345661;54;20950;-67
2021/08/09 01:46:19;;;;;;;2.45;0.70;;;18.70;70.00;;;;;;2461400;52;20978;-66
2021/08/09 01:48:46;;;;;;;2.50;0.93;;;18.60;69.90;;;;;;2332105;54;21406;-66
2021/08/09 01:51:14;;;;;;;2.00;0.73;;;18.60;69.90;;;;;;2340384;54;21461;-66
2021/08/09 01:53:41;;;;;;;3.83;1.35;;;18.60;69.90;;;;;;2344828;54;20944;-67
2021/08/09 01:56:10;;;;;;;1.50;0.70;;;18.50;69.90;;;;;;2344153;54;20945;-67
2021/08/09 01:58:36;;;;;;;2.97;1.00;;;18.50;70.00;;;;;;2343301;54;21806;-67
2021/08/09 02:01:04;;;;;;;2.75;0.98;;;18.50;70.20;;;;;;2435962;52;21272;-68
2021/08/09 02:03:31;;;;;;;4.12;1.00;;;18.50;70.30;;;;;;2342901;54;20916;-68
2021/08/09 02:05:57;;;;;;;3.17;0.90;;;18.40;70.30;;;;;;2343692;54;20924;-66
2021/08/09 02:08:23;;;;;;;2.42;0.80;;;18.40;70.40;;;;;;2590109;52;21151;-69
2021/08/09 02:10:55;;;;;;;1.87;0.90;;;18.40;70.50;;;;;;2343109;54;20921;-67
2021/08/09 02:13:38;;;;;;;1.92;0.70;;;18.40;70.40;;;;;;2347247;54;20931;-67
2021/08/09 02:16:08;;;;;;;2.20;0.77;;;18.40;70.30;;;;;;2349937;54;20927;-67
2021/08/09 02:21:13;;;;;;;2.12;1.00;;;18.30;70.30;;;;;;2342957;54;20957;-69
2021/08/09 02:24:18;;;;;;;3.33;1.10;;;18.30;69.40;;;;;;2344034;54;21036;-66
2021/08/09 02:26:54;;;;;;;3.08;0.73;;;18.30;69.70;;;;;;2343899;54;21039;-67
2021/08/09 02:29:27;;;;;;;1.95;0.82;;;18.30;70.40;;;;;;2343901;54;20941;-66
2021/08/09 02:31:53;;;;;;;4.75;0.80;;;18.20;70.40;;;;;;2343253;54;21346;-68
2021/08/09 02:34:20;;;;;;;2.15;0.90;;;18.20;70.70;;;;;;2343727;53;20996;-66
2021/08/09 02:36:49;;;;;;;2.53;0.90;;;18.20;70.70;;;;;;2346588;54;20942;-67
2021/08/09 02:39:15;;;;;;;2.42;1.10;;;18.20;70.70;;;;;;2342654;54;20948;-67
2021/08/09 02:41:42;;;;;;;1.70;0.70;;;18.10;70.80;;;;;;2539584;52;21004;-67
2021/08/09 02:44:08;;;;;;;2.10;1.00;;;18.10;70.90;;;;;;2345153;54;20970;-68
2021/08/09 02:46:35;;;;;;;2.30;0.82;;;18.10;71.00;;;;;;2590077;52;20917;-68
2021/08/09 02:49:01;;;;;;;3.47;1.17;;;18.10;71.10;;;;;;2343471;54;21008;-67
2021/08/09 02:51:28;;;;;;;2.42;1.08;;;18.10;71.20;;;;;;2346688;54;20981;-69
2021/08/09 02:53:54;;;;;;;3.08;1.05;;;18.10;71.20;;;;;;2578208;52;20989;-68
2021/08/09 02:56:23;;;;;;;2.60;0.88;;;18.10;71.20;;;;;;2334601;54;20925;-67
2021/08/09 02:58:53;;;;;;;3.00;0.93;;;18.10;71.10;;;;;;2507373;52;20940;-69
2021/08/09 03:01:19;;;;;;;2.17;0.88;;;18.00;71.00;;;;;;2343915;54;21406;-66
2021/08/09 03:03:48;;;;;;;2.30;0.93;;;18.00;71.00;;;;;;2347948;54;21010;-66
2021/08/09 03:06:14;;;;;;;2.20;1.10;;;18.00;71.00;;;;;;2346106;54;20933;-67
2021/08/09 03:08:41;;;;;;;2.55;1.10;;;18.00;71.00;;;;;;2589680;52;20959;-68
2021/08/09 03:11:08;;;;;;;2.72;0.95;;;17.90;70.90;;;;;;2324295;54;20941;-67
2021/08/09 03:13:34;;;;;;;2.87;1.20;;;17.90;70.90;;;;;;2343892;54;21561;-69
2021/08/09 03:16:00;;;;;;;3.12;1.00;;;17.90;71.70;;;;;;2347461;54;21008;-66
2021/08/09 03:18:34;;;;;;;2.80;0.95;;;17.90;71.00;;;;;;2341819;53;21557;-66
2021/08/09 03:21:08;;;;;;;2.00;0.82;;;17.80;71.00;;;;;;2342416;53;20960;-69
2021/08/09 03:23:34;;;;;;;3.65;1.17;;;17.80;70.80;;;;;;2590582;52;20932;-67
2021/08/09 03:26:01;;;;;;;2.03;0.90;;;17.80;71.00;;;;;;2589291;52;20925;-67
2021/08/09 03:28:27;;;;;;;3.33;1.42;;;17.70;70.90;;;;;;2589407;52;20960;-68
2021/08/09 03:30:54;;;;;;;2.70;0.93;;;17.70;71.00;;;;;;2343528;53;20952;-66
2021/08/09 03:33:20;;;;;;;2.53;1.02;;;17.70;71.00;;;;;;2590665;52;20971;-69
2021/08/09 03:35:47;;;;;;;3.08;1.20;;;17.70;71.10;;;;;;2343271;54;20909;-69
2021/08/09 03:38:13;;;;;;;4.72;1.05;;;17.60;71.00;;;;;;2344285;54;20924;-67
2021/08/09 03:40:40;;;;;;;3.35;1.00;;;17.60;71.10;;;;;;2445306;53;20970;-67
2021/08/09 03:43:06;;;;;;;2.67;1.02;;;17.60;71.20;;;;;;2343380;54;20909;-66
2021/08/09 03:45:34;;;;;;;2.30;0.90;;;17.60;71.20;;;;;;2349212;53;21018;-67
2021/08/09 03:48:01;;;;;;;2.12;1.00;;;17.60;71.30;;;;;;2336109;54;20917;-66
2021/08/09 03:50:27;;;;;;;2.50;1.02;;;17.50;71.20;;;;;;2345065;54;21748;-67
2021/08/09 03:52:54;;;;;;;4.78;1.00;;;17.50;71.30;;;;;;2347009;54;21017;-68
2021/08/09 03:55:21;;;;;;;2.08;0.90;;;17.50;71.40;;;;;;2334070;53;20947;-67
2021/08/09 03:57:48;;;;;;;2.10;1.02;;;17.50;71.50;;;;;;2333573;54;20984;-67
2021/08/09 04:00:14;;;;;;;2.50;1.02;;;17.40;71.40;;;;;;2345561;54;21054;-66
2021/08/09 04:02:41;;;;;;;2.12;1.02;;;17.40;71.50;;;;;;2341317;54;21448;-66
2021/08/09 04:05:09;;;;;;;3.62;1.15;;;17.40;71.50;;;;;;2347107;54;20943;-66
2021/08/09 04:07:44;;;;;;;2.50;1.10;;;17.40;71.60;;;;;;2456796;52;20972;-66
2021/08/09 04:10:11;;;;;;;2.37;1.00;;;17.40;71.30;;;;;;2343728;54;21751;-66
2021/08/09 04:12:37;;;;;;;3.53;1.08;;;17.40;71.60;;;;;;2343469;54;21472;-68
2021/08/09 04:15:06;;;;;;;2.25;0.90;;;17.40;71.50;;;;;;2343159;54;21908;-67
2021/08/09 04:17:33;;;;;;;3.33;0.90;;;17.40;71.50;;;;;;2356899;53;21003;-67
2021/08/09 04:20:00;;;;;;;2.22;0.80;;;17.30;71.40;;;;;;2343406;54;21028;-66
2021/08/09 04:22:27;;;;;;;1.80;0.80;;;17.40;71.60;;;;;;2343152;53;21448;-67
2021/08/09 04:24:56;;;;;;;2.47;0.80;;;17.30;71.60;;;;;;2390965;52;20986;-67
2021/08/09 04:27:22;;;;;;;2.83;1.15;;;17.30;71.60;;;;;;2321017;54;20956;-66
2021/08/09 04:29:49;;;;;;;3.72;1.15;;;17.20;71.70;;;;;;2343181;54;21000;-66
2021/08/09 04:32:16;;;;;;;3.78;1.05;;;17.20;71.70;;;;;;2343407;53;21012;-66
2021/08/09 04:34:42;;;;;;;2.22;1.08;;;17.20;71.70;;;;;;2346733;54;20966;-67
2021/08/09 04:37:09;;;;;;;2.95;0.90;;;17.20;71.80;;;;;;2354477;54;20958;-66
2021/08/09 04:39:35;;;;;;;3.37;0.90;;;17.20;71.90;;;;;;2334837;53;20950;-67
2021/08/09 04:42:02;;;;;;;3.10;1.00;;;17.20;72.00;;;;;;2329618;54;20981;-67
2021/08/09 04:44:34;;;;;;;2.62;0.93;;;17.20;72.00;;;;;;2589387;52;20911;-68
2021/08/09 04:47:00;;;;;;;3.28;0.80;;;17.20;72.10;;;;;;2342814;54;20932;-66
2021/08/09 04:49:26;;;;;;;2.53;1.00;;;17.20;72.20;;;;;;2347182;54;21374;-67
2021/08/09 04:51:53;;;;;;;1.85;0.90;;;17.20;72.20;;;;;;2341215;54;20925;-67
2021/08/09 04:54:20;;;;;;;2.33;1.00;;;17.20;72.20;;;;;;2346322;54;20985;-66
2021/08/09 04:56:46;;;;;;;1.92;0.82;;;17.20;72.30;;;;;;2343740;53;20940;-67
2021/08/09 04:59:15;;;;;;;2.35;1.02;;;17.20;72.30;;;;;;2332017;54;20971;-67
2021/08/09 05:01:41;;;;;;;2.22;1.05;;;17.20;72.30;;;;;;2336633;54;20969;-67
2021/08/09 05:04:07;;;;;;;4.05;1.02;;;17.20;72.30;;;;;;2342703;53;21007;-67
2021/08/09 05:06:35;;;;;;;2.35;0.90;;;17.20;72.20;;;;;;2345956;53;21002;-69
2021/08/09 05:09:04;;;;;;;2.85;1.10;;;17.20;72.20;;;;;;2345850;53;20973;-68
2021/08/09 05:11:30;;;;;;;2.33;1.00;;;17.10;72.10;;;;;;2349605;53;20942;-66
2021/08/09 05:13:58;;;;;;;2.60;1.12;;;17.10;72.20;;;;;;2341126;54;21715;-69
2021/08/09 05:16:27;;;;;;;2.87;1.17;;;17.10;72.30;;;;;;2346396;54;20952;-70
2021/08/09 05:19:01;;;;;;;3.78;1.20;;;17.10;72.40;;;;;;2400398;53;20931;-69
2021/08/09 05:21:30;;;;;;;2.58;1.17;;;17.10;72.50;;;;;;2324094;55;20992;-68
2021/08/09 05:24:01;;;;;;;3.00;1.30;;;17.20;72.60;;;;;;2327359;53;20977;-69
2021/08/09 05:26:28;;;;;;;2.80;1.20;;;17.20;72.70;;;;;;2352990;54;21046;-67
2021/08/09 05:28:54;;;;;;;3.58;1.00;;;17.20;72.90;;;;;;2328738;54;21989;-67
2021/08/09 05:31:20;;;;;;;2.72;1.33;;;17.20;72.90;;;;;;2582675;52;21526;-66
2021/08/09 05:33:47;;;;;;;2.15;1.02;;;17.20;73.10;;;;;;2343174;54;21028;-67
2021/08/09 05:36:13;;;;;;;3.95;0.98;;;17.20;73.10;;;;;;2347040;54;20950;-67
2021/08/09 05:38:39;;;;;;;3.10;1.10;;;17.20;73.50;;;;;;2342802;53;20981;-67
2021/08/09 05:41:06;;;;;;;2.25;1.00;;;17.20;73.30;;;;;;2343444;54;20948;-67
2021/08/09 05:43:33;;;;;;;3.05;0.80;;;17.30;73.30;;;;;;2345964;54;20934;-67
2021/08/09 05:46:00;;;;;;;1.90;0.90;;;17.30;73.50;;;;;;2342466;53;20936;-66
2021/08/09 05:48:29;;;;;;;2.45;0.90;;;17.30;73.50;;;;;;2345918;54;21017;-67
2021/08/09 05:50:55;;;;;;;2.20;1.00;;;17.40;73.60;;;;;;2323896;54;20933;-67
2021/08/09 05:53:26;;;;;;;2.12;0.95;;;17.40;73.60;;;;;;2348394;54;20942;-66
2021/08/09 05:55:53;;;;;;;2.30;0.80;;;17.40;73.70;;;;;;2326312;54;21539;-68
2021/08/09 05:58:19;;;;;;;3.15;0.90;;;17.40;73.80;;;;;;2481407;52;21497;-67
2021/08/09 06:00:45;;;;;;;1.98;0.80;;;17.50;74.00;;;;;;2346725;54;20934;-67
2021/08/09 06:03:16;;;;;;;4.15;1.10;;;17.50;74.00;;;;;;2331771;53;21561;-67
2021/08/09 06:05:43;;;;;;;2.42;1.00;;;17.50;74.10;;;;;;2342656;53;21040;-67
2021/08/09 06:08:09;;;;;;;2.40;1.00;;;17.60;74.60;;;;;;2350693;54;20953;-66
2021/08/09 06:10:36;;;;;;;1.98;0.80;;;17.60;74.30;;;;;;2337530;54;22096;-70
2021/08/09 06:13:02;;;;;;;2.75;0.90;;;17.70;74.50;;;;;;2347141;54;20974;-70
2021/08/09 06:15:29;;;;;;;1.98;0.80;;;17.70;74.50;;;;;;2343160;54;20929;-69
2021/08/09 06:17:58;;;;;;;1.77;0.82;;;17.80;74.70;;;;;;2346350;54;20986;-68
2021/08/09 06:20:24;;;;;;;2.60;0.90;;;17.90;74.80;;;;;;2589380;52;20916;-70
2021/08/09 06:22:51;;;;;;;1.37;0.70;;;17.90;74.90;;;;;;2440165;53;21427;-68
2021/08/09 06:25:18;;;;;;;2.78;0.85;;;18.00;75.00;;;;;;2334983;53;20904;-68
2021/08/09 06:27:45;;;;;;;2.72;0.85;;;18.00;75.00;;;;;;2589746;52;20957;-70
2021/08/09 06:30:12;;;;;;;2.25;0.70;;;18.10;75.10;;;;;;2346671;54;21518;-66
2021/08/09 06:32:38;;;;;;;1.90;0.90;;;18.20;75.20;;;;;;2343561;54;21827;-67
2021/08/09 06:35:05;;;;;;;4.60;0.88;;;18.30;75.30;;;;;;2346074;54;21779;-67
2021/08/09 06:37:32;;;;;;;2.10;0.90;;;18.30;75.20;;;;;;2336621;54;20925;-70
2021/08/09 06:39:58;;;;;;;1.73;0.95;;;18.40;75.20;;;;;;2343872;54;20933;-68
2021/08/09 06:42:24;;;;;;;4.93;1.42;;;18.40;75.20;;;;;;2337250;54;20978;-67
2021/08/09 06:44:50;;;;;;;2.05;0.80;;;18.50;75.20;;;;;;2343949;54;21000;-67
2021/08/09 06:47:17;;;;;;;2.30;1.10;;;18.60;75.20;;;;;;2590022;52;20913;-67
2021/08/09 06:49:44;;;;;;;2.28;1.05;;;18.70;75.20;;;;;;2345061;54;21093;-67
2021/08/09 06:52:10;;;;;;;2.20;0.88;;;18.70;75.20;;;;;;2446280;52;21014;-66
2021/08/09 06:54:39;;;;;;;2.40;1.02;;;18.80;75.30;;;;;;2345926;54;20926;-68
2021/08/09 06:57:06;;;;;;;2.12;0.90;;;18.90;75.40;;;;;;2535182;52;21488;-67
2021/08/09 06:59:33;;;;;;;2.33;0.90;;;19.00;75.50;;;;;;2336482;53;21727;-67
2021/08/09 07:01:59;;;;;;;1.92;0.93;;;19.10;75.40;;;;;;2357739;52;21359;-67
2021/08/09 07:04:26;;;;;;;3.40;1.10;;;19.20;75.50;;;;;;2381041;53;21064;-67
2021/08/09 07:06:53;;;;;;;2.53;1.00;;;19.30;75.60;;;;;;2343425;54;20921;-67
2021/08/09 07:09:21;;;;;;;3.58;1.17;;;19.40;75.50;;;;;;2347636;54;20996;-67
2021/08/09 07:11:47;;;;;;;2.83;1.20;;;19.40;75.40;;;;;;2342876;54;20921;-67
2021/08/09 07:14:18;;;;;;;3.90;1.45;;;19.50;75.50;;;;;;2346432;54;21037;-68
2021/08/09 07:16:45;;;;;;;2.35;1.02;;;19.60;75.50;;;;;;2343744;54;20944;-67
2021/08/09 07:19:13;;;;;;;2.55;0.95;;;19.70;75.70;;;;;;2343944;54;21383;-68
2021/08/09 07:21:40;;;;;;;2.65;1.12;;;19.80;75.90;;;;;;2563090;53;21782;-68
2021/08/09 07:24:06;;;;;;;1.90;0.90;;;19.90;75.90;;;;;;2343048;54;20937;-67
2021/08/09 07:26:33;;;;;;;2.72;1.10;;;20.10;76.10;;;;;;2590464;52;21037;-68
2021/08/09 07:29:00;;;;;;;3.05;0.80;;;20.20;76.10;;;;;;2343589;54;20988;-68
2021/08/09 07:31:26;;;;;;;2.70;1.00;;;20.20;76.10;;;;;;2343627;54;22141;-69
2021/08/09 07:33:53;;;;;;;2.62;1.00;;;20.40;76.40;;;;;;2342998;54;20956;-67
2021/08/09 07:36:19;;;;;;;2.87;0.98;;;20.50;76.70;;;;;;2527408;52;20986;-68
2021/08/09 07:38:46;;;;;;;2.65;0.90;;;20.60;76.70;;;;;;2435924;52;21638;-69
2021/08/09 07:41:15;;;;;;;2.80;0.90;;;20.80;76.80;;;;;;2479788;52;21000;-69
2021/08/09 07:43:41;;;;;;;2.45;0.90;;;20.90;76.80;;;;;;2343495;54;21346;-67
2021/08/09 07:46:08;;;;;;;2.72;0.85;;;21.00;76.90;;;;;;2588964;52;20978;-69
2021/08/09 07:48:34;;;;;;;2.70;0.90;;;21.10;77.00;;;;;;2343143;54;20968;-70
2021/08/09 07:51:01;;;;;;;2.55;1.08;;;21.30;77.00;;;;;;2358152;53;20961;-68
2021/08/09 07:53:28;;;;;;;1.75;0.85;;;21.50;77.10;;;;;;2346902;54;21372;-68
2021/08/09 07:55:57;;;;;;;2.25;0.90;;;21.60;77.30;;;;;;2425900;52;20962;-70
2021/08/09 07:58:25;;;;;;;2.42;0.90;;;21.80;77.20;;;;;;2342683;53;21445;-68
2021/08/09 08:00:54;;;;;;;3.03;0.93;;;22.00;77.70;;;;;;2492053;52;22022;-70
2021/08/09 08:03:21;;;;;;;2.20;0.82;;;22.20;78.00;;;;;;2332913;54;20974;-69
2021/08/09 08:05:47;;;;;;;2.92;1.10;;;22.40;77.60;;;;;;2590129;52;21777;-69
2021/08/09 08:08:13;;;;;;;2.67;0.90;;;22.60;77.00;;;;;;2343717;54;22377;-67
2021/08/09 08:10:42;;;;;;;2.70;0.90;;;22.70;76.40;;;;;;2558830;52;20873;-67
2021/08/09 08:13:09;;;;;;;1.92;0.80;;;22.90;75.60;;;;;;2343834;54;20988;-70
2021/08/09 08:15:36;;;;;;;1.98;0.80;;;23.00;75.30;;;;;;2343364;54;21757;-67
2021/08/09 08:18:05;;;;;;;3.50;1.00;;;23.10;74.50;;;;;;2519218;52;20977;-70
2021/08/09 08:20:31;;;;;;;3.87;0.88;;;23.20;73.00;;;;;;2588761;52;21456;-68
2021/08/09 08:23:02;;;;;;;2.25;0.77;;;23.20;72.40;;;;;;2334701;54;21572;-67
2021/08/09 08:25:29;;;;;;;2.97;0.82;;;23.30;72.20;;;;;;2322226;54;21461;-69
2021/08/09 08:27:57;;;;;;;2.10;0.70;;;23.30;70.90;;;;;;2338126;54;20929;-71
2021/08/09 08:30:23;;;;;;;1.80;0.80;;;23.40;70.40;;;;;;2436021;52;20944;-69
2021/08/09 08:32:50;;;;;;;2.17;0.70;;;23.40;70.10;;;;;;2344033;54;21370;-67
2021/08/09 08:35:16;;;;;;;3.47;0.90;;;23.40;70.00;;;;;;2353116;54;21131;-67
2021/08/09 08:37:43;;;;;;;2.42;0.93;;;23.50;70.30;;;;;;2334641;53;20950;-71
2021/08/09 08:40:11;;;;;;;2.42;0.90;;;23.50;69.20;;;;;;2346642;54;20976;-69
2021/08/09 08:42:39;;;;;;;2.47;1.00;;;23.50;68.90;;;;;;2342972;54;20972;-67
2021/08/09 08:45:07;;;;;;;3.00;1.05;;;23.60;68.60;;;;;;2589029;52;21445;-70
2021/08/09 08:47:33;;;;;;;2.15;0.90;;;23.60;69.20;;;;;;2343855;54;21647;-68
2021/08/09 08:50:00;;;;;;;1.65;0.75;;;23.70;69.50;;;;;;2343132;54;21261;-68
2021/08/09 08:52:27;;;;;;;1.85;0.85;;;23.70;69.70;;;;;;2346461;54;22175;-70
2021/08/09 08:54:53;;;;;;;3.05;1.00;;;23.80;70.00;;;;;;2589335;52;20928;-69
2021/08/09 08:57:25;;;;;;;2.70;0.70;;;23.90;70.20;;;;;;2324458;55;21401;-71
2021/08/09 08:59:51;;;;;;;5.53;1.00;;;23.90;69.80;;;;;;2590647;52;20917;-68
2021/08/09 09:02:37;;;;;;;1.75;0.68;;;24.00;70.10;;;;;;2346377;53;21017;-69
2021/08/09 09:05:17;;;;;;;2.20;0.70;;;24.10;67.40;;;;;;2422314;52;20954;-68
2021/08/09 09:07:47;;;;;;;2.60;0.85;;;24.20;68.90;;;;;;2353451;54;20966;-69
2021/08/09 09:10:37;;;;;;;3.25;0.90;;;24.30;70.00;;;;;;2329358;53;20936;-69
2021/08/09 09:13:11;;;;;;;1.60;0.62;;;24.50;67.80;;;;;;2354253;54;20995;-69
2021/08/09 09:16:03;;;;;;;2.37;0.80;;;24.60;69.40;;;;;;2325690;53;21417;-68
2021/08/09 09:18:47;;;;;;;2.65;0.80;;;24.70;68.20;;;;;;2559930;53;20941;-69
2021/08/09 09:21:24;;;;;;;2.78;0.80;;;24.80;67.80;;;;;;2361885;53;20928;-68
2021/08/09 09:23:52;;;;;;;2.22;0.98;;;24.90;67.30;;;;;;2346853;54;21014;-68
2021/08/09 09:26:23;;;;;;;2.83;0.90;;;25.00;68.40;;;;;;2406123;52;21485;-69
2021/08/09 09:28:51;;;;;;;2.40;0.80;;;25.00;68.90;;;;;;2343953;54;20937;-71
2021/08/09 09:31:28;;;;;;;2.45;0.60;;;25.10;68.90;;;;;;2503164;52;21028;-68
2021/08/09 09:33:54;;;;;;;2.83;1.10;;;25.20;67.30;;;;;;2346186;53;20978;-69
2021/08/09 09:36:22;;;;;;;2.45;0.90;;;25.30;68.70;;;;;;2491920;52;20948;-70
2021/08/09 09:38:51;;;;;;;2.08;0.90;;;25.40;68.60;;;;;;2560619;52;20957;-70
2021/08/09 09:41:19;;;;;;;2.55;0.80;;;25.50;67.60;;;;;;2590019;52;20936;-72
2021/08/09 09:43:46;;;;;;;2.72;0.90;;;25.60;67.40;;;;;;2474935;52;20921;-70
2021/08/09 09:46:28;;;;;;;4.47;1.27;;;25.60;66.60;;;;;;2345104;54;20963;-69
2021/08/09 09:49:01;;;;;;;2.05;0.82;;;25.70;64.80;;;;;;2343189;54;20925;-68
2021/08/09 09:51:27;;;;;;;1.55;0.70;;;25.80;66.40;;;;;;2344517;52;20943;-69
2021/08/09 09:53:54;;;;;;;1.85;0.62;;;25.80;66.60;;;;;;2554715;52;20978;-71
2021/08/09 09:56:22;;;;;;;3.10;0.93;;;25.80;67.30;;;;;;2563935;52;20968;-70
2021/08/09 09:58:48;;;;;;;1.92;0.75;;;25.90;67.00;;;;;;2344914;54;21034;-70
2021/08/09 10:01:17;;;;;;;3.05;1.10;;;26.00;67.40;;;;;;2510618;52;20929;-68
2021/08/09 10:03:44;;;;;;;2.97;1.10;;;26.00;65.70;;;;;;2340230;53;21031;-70
2021/08/09 10:06:12;;;;;;;2.47;0.80;;;26.10;64.10;;;;;;2526499;52;21953;-71
2021/08/09 10:08:43;;;;;;;3.87;1.50;;;26.10;64.60;;;;;;2354142;52;21830;-69
2021/08/09 10:11:10;;;;;;;1.75;0.73;;;26.10;64.00;;;;;;2589069;52;21020;-70
2021/08/09 10:13:38;;;;;;;2.65;0.80;;;26.10;65.40;;;;;;2350069;54;20931;-72
2021/08/09 10:16:07;;;;;;;2.15;0.77;;;26.10;65.90;;;;;;2508426;52;20980;-69
2021/08/09 10:18:36;;;;;;;1.80;0.62;;;26.20;65.20;;;;;;2329486;55;21021;-67
2021/08/09 10:21:03;;;;;;;2.58;0.75;;;26.20;65.30;;;;;;2326999;54;21819;-72
2021/08/09 10:23:45;;;;;;;1.30;0.62;;;26.30;65.50;;;;;;2345496;54;20946;-69
2021/08/09 10:33:16;;;;;;;3.50;0.90;;;26.30;63.80;;;;;;2590335;52;20928;-68
2021/08/09 10:35:56;;;;;;;2.35;0.80;;;26.40;62.70;;;;;;2343849;54;21024;-68
2021/08/09 10:38:23;;;;;;;2.65;0.88;;;26.50;63.00;;;;;;2346710;54;20998;-70
2021/08/09 10:42:42;;;;;;;3.28;1.00;;;26.50;64.70;;;;;;2343453;54;20978;-69
2021/08/09 10:45:40;;;;;;;1.62;0.60;;;26.50;62.20;;;;;;2562465;53;20949;-70
2021/08/09 10:48:10;;;;;;;2.67;1.05;;;26.60;62.20;;;;;;2324592;55;20944;-71
2021/08/09 10:50:46;;;;;;;1.35;0.60;;;26.60;64.60;;;;;;2590734;53;20937;-68
2021/08/09 10:56:45;;;;;;;1.90;0.57;;;26.50;62.80;;;;;;2327708;54;21005;-69
2021/08/09 10:59:57;;;;;;;2.17;0.70;;;26.50;63.90;;;;;;2590277;52;20956;-69
2021/08/09 11:02:35;;;;;;;2.42;0.70;;;26.60;63.10;;;;;;2347658;54;21813;-70
2021/08/09 11:06:53;;;;;;;3.50;0.90;;;26.60;64.70;;;;;;2505920;52;21664;-67
2021/08/09 11:11:12;;;;;;;2.05;0.70;;;26.60;63.00;;;;;;2392467;52;20946;-69
2021/08/09 11:14:24;;;;;;;2.17;0.70;;;26.60;62.60;;;;;;2421646;53;20947;-67
2021/08/09 11:17:03;;;;;;;2.97;0.90;;;26.70;61.80;;;;;;2342762;54;21067;-68
2021/08/09 11:19:29;;;;;;;2.28;0.77;;;26.60;60.10;;;;;;2342416;54;20944;-68
2021/08/09 11:22:00;;;;;;;2.05;0.62;;;26.70;61.60;;;;;;2352265;53;20954;-68
2021/08/09 11:24:32;;;;;;;2.83;0.80;;;26.70;62.20;;;;;;2346479;54;20955;-70
2021/08/09 11:27:05;;;;;;;2.92;0.90;;;26.70;60.30;;;;;;2343556;54;20937;-70
2021/08/09 11:29:52;;;;;;;1.85;0.60;;;26.80;59.70;;;;;;2488690;52;20955;-68
2021/08/09 11:32:38;;;;;;;1.70;0.88;;;26.80;59.30;;;;;;2333587;54;20961;-69
2021/08/09 11:35:05;;;;;;;1.10;0.55;;;26.90;58.40;;;;;;2540372;52;21819;-71
2021/08/09 11:37:33;;;;;;;1.77;0.75;;;26.90;61.30;;;;;;2348448;53;21021;-69
2021/08/09 11:39:59;;;;;;;1.92;0.70;;;26.90;60.00;;;;;;2409793;52;21392;-71
2021/08/09 11:42:47;;;;;;;2.00;0.70;;;26.90;60.90;;;;;;2331919;53;20992;-69
2021/08/09 11:45:26;;;;;;;2.47;0.90;;;27.00;59.10;;;;;;2349258;54;21077;-69
2021/08/09 11:47:54;;;;;;;2.97;0.60;;;27.00;58.90;;;;;;2334898;54;20998;-68
2021/08/09 11:50:22;;;;;;;3.60;1.10;;;27.10;60.80;;;;;;2431569;52;21005;-69
2021/08/09 11:52:48;;;;;;;2.33;0.70;;;27.10;60.60;;;;;;2357853;53;21694;-70
2021/08/09 11:55:21;;;;;;;2.00;0.60;;;27.10;61.40;;;;;;2396948;53;20925;-68
2021/08/09 11:57:48;;;;;;;2.65;0.90;;;27.20;60.80;;;;;;2344009;54;21019;-70
2021/08/09 12:00:15;;;;;;;3.15;0.80;;;27.20;60.80;;;;;;2348614;52;20882;-68
2021/08/09 12:03:18;;;;;;;1.75;0.80;;;27.20;60.40;;;;;;2346681;54;22363;-67
2021/08/09 12:05:45;;;;;;;2.37;0.80;;;27.20;57.30;;;;;;2589796;52;21036;-69
2021/08/09 12:08:13;;;;;;;1.83;0.75;;;27.10;60.00;;;;;;2344009;54;20940;-72
2021/08/09 12:10:40;;;;;;;2.05;0.80;;;27.10;60.40;;;;;;2344501;54;20901;-70
2021/08/09 12:13:26;;;;;;;2.78;0.73;;;27.10;60.30;;;;;;2342427;54;21017;-68
2021/08/09 12:16:14;;;;;;;2.00;0.80;;;27.20;59.40;;;;;;2561718;53;20907;-69
2021/08/09 12:18:55;;;;;;;1.62;0.70;;;27.20;59.10;;;;;;2345937;54;21003;-67
2021/08/09 12:21:21;;;;;;;1.67;0.70;;;27.20;59.90;;;;;;2330874;54;21410;-71
2021/08/09 12:24:13;;;;;;;2.97;0.70;;;27.30;61.00;;;;;;2339817;53;21074;-72
2021/08/09 12:26:39;;;;;;;3.90;0.93;;;27.30;57.60;;;;;;2343809;53;20904;-69
2021/08/09 12:29:06;;;;;;;2.47;0.80;;;27.30;59.90;;;;;;2353757;53;21049;-72
2021/08/09 12:31:40;;;;;;;3.30;0.90;;;27.30;60.10;;;;;;2331797;53;20940;-72
2021/08/09 12:34:08;;;;;;;2.22;0.88;;;27.40;59.90;;;;;;2446839;52;20922;-70
2021/08/09 12:40:14;;;;;;;1.35;0.57;;;27.50;59.30;;;;;;2541043;52;20992;-70
2021/08/09 12:42:41;;;;;;;1.95;0.60;;;27.60;59.40;;;;;;2347029;54;21003;-69
2021/08/09 12:45:13;;;;;;;3.33;0.90;;;27.60;61.30;;;;;;2334695;54;21402;-68
2021/08/09 12:47:40;;;;;;;2.05;0.68;;;27.70;60.90;;;;;;2374398;53;20919;-69
2021/08/09 12:50:12;;;;;;;3.70;1.00;;;27.80;61.00;;;;;;2428257;52;20968;-69
2021/08/09 12:52:38;;;;;;;2.47;0.95;;;27.80;59.50;;;;;;2399170;52;20909;-69
2021/08/09 12:55:06;;;;;;;2.03;1.00;;;27.90;59.60;;;;;;2347524;54;20952;-67
2021/08/09 12:57:33;;;;;;;1.70;0.70;;;27.90;59.70;;;;;;2343153;53;20917;-68
2021/08/09 12:59:59;;;;;;;3.30;0.93;;;27.90;59.50;;;;;;2593297;52;20913;-66
2021/08/09 13:02:28;;;;;;;4.87;1.00;;;28.00;60.00;;;;;;2347162;53;20912;-67
2021/08/09 13:04:57;;;;;;;1.42;0.60;;;28.00;59.60;;;;;;2487317;52;21398;-66
2021/08/09 13:07:23;;;;;;;2.50;0.90;;;28.00;60.00;;;;;;2348876;53;20981;-66
2021/08/09 13:09:49;;;;;;;2.10;0.77;;;28.10;59.70;;;;;;2573927;52;20920;-70
2021/08/09 13:12:16;;;;;;;2.42;0.70;;;28.20;60.40;;;;;;2589198;52;21014;-68
2021/08/09 13:14:43;;;;;;;3.10;0.82;;;28.30;59.90;;;;;;2416654;53;21041;-70
2021/08/09 13:17:13;;;;;;;2.25;0.70;;;28.30;59.70;;;;;;2338434;54;20973;-69
2021/08/09 13:19:39;;;;;;;2.58;0.65;;;28.40;58.60;;;;;;2584606;52;20917;-70
2021/08/09 13:22:05;;;;;;;2.70;0.65;;;28.40;58.60;;;;;;2344909;54;20982;-69
2021/08/09 13:24:34;;;;;;;1.90;0.50;;;28.40;59.50;;;;;;2542283;53;20925;-68
2021/08/09 13:27:01;;;;;;;2.10;0.70;;;28.50;59.70;;;;;;2343328;54;21079;-70
2021/08/09 13:29:28;;;;;;;1.92;0.82;;;28.50;59.60;;;;;;2590579;52;21032;-69
2021/08/09 13:31:54;;;;;;;2.47;0.80;;;28.60;58.80;;;;;;2343050;53;21298;-69